Time;durP1;ratioP1;P1;durP2;ratioP2;P2;SDS_P1;SDS_P2;PMS_P1;PMS_P2;Temp;Humidity;BMP_temperature;BMP_pressure;BME280_temperature;BME280_humidity;BME280_pressure;Samples;Min_cycle;Max_cycle;Signal;HPM_P1;HPM_P2
2021/12/15 17:55:23;;;;;;;;;;;;;;;;;;2114543;27;1693;-83
2021/12/15 17:56:32;;;;;;;;;;;;;;;;;;2091995;28;1428;-83
2021/12/15 17:57:36;;;;;;;;;;;;;;;;;;2079367;28;1763;-84
2021/12/15 17:58:37;;;;;;;;;;;;;;;;;;2092346;28;1273;-83
2021/12/15 17:59:40;;;;;;;;;;;;;;;;;;2086390;28;1666;-84
2021/12/15 18:00:42;;;;;;;;;;;;;;;;;;2089860;28;1360;-83
2021/12/15 18:01:44;;;;;;;;;;;;;;;;;;2096957;28;1059;-82
2021/12/15 18:02:45;;;;;;;;;;;;;;;;;;2090879;28;1636;-83
2021/12/15 18:03:47;;;;;;;;;;;;;;;;;;2085413;28;1337;-82
2021/12/15 18:04:49;;;;;;;;;;;;;;;;;;2097885;28;950;-83
2021/12/15 18:05:50;;;;;;;;;;;;;;;;;;2089047;28;1563;-83
2021/12/15 18:06:54;;;;;;;;;;;;;;;;;;2088508;28;1192;-83
2021/12/15 18:07:55;;;;;;;;;;;;;;;;;;2089717;28;1340;-84
2021/12/15 18:08:56;;;;;;;;;;;;;;;;;;2089180;28;1706;-82
2021/12/15 18:09:58;;;;;;;;;;;;;;;;;;2089374;28;1071;-83
2021/12/15 18:11:06;;;;;;;;;;;;;;;;;;2089195;28;1402;-83
2021/12/15 18:12:10;;;;;;;;;;;;;;;;;;2082307;28;1378;-84
2021/12/15 18:13:11;;;;;;;;;;;;;;;;;;2085772;28;1458;-84
2021/12/15 18:14:13;;;;;;;;;;;;;;;;;;2095806;28;2048;-83
2021/12/15 18:15:16;;;;;;;;;;;;;;;;;;2097727;28;1910;-85
2021/12/15 18:16:17;;;;;;;;;;;;;;;;;;2096190;28;1352;-82
2021/12/15 18:17:34;;;;;;;;;;;;;;;;;;2097744;28;1400;-83
2021/12/15 18:18:35;;;;;;;;;;;;;;;;;;2089415;28;1413;-83
2021/12/15 18:19:37;;;;;;;;;;;;;;;;;;2083112;28;2113;-84
2021/12/15 18:20:41;;;;;;;;;;;;;;;;;;2098015;28;1365;-85
2021/12/15 18:21:46;;;;;;;;;;;;;;;;;;2089523;28;1366;-90
2021/12/15 18:22:48;;;;;;;;;;;;;;;;;;2089420;28;1240;-88
2021/12/15 18:24:09;;;;;;;;;;;;;;;;;;2088807;28;1423;-86
2021/12/15 18:25:21;;;;;;;;;;;;;;;;;;2080107;28;1311;-85
2021/12/15 18:26:38;;;;;;;;;;;;;;;;;;2081108;28;1310;-83
2021/12/15 18:27:40;;;;;;;;;;;;;;;;;;2080377;28;1198;-84
2021/12/15 18:28:42;;;;;;;;;;;;;;;;;;2082174;28;1464;-81
2021/12/15 18:29:48;;;;;;;;;;;;;;;;;;2101461;28;1867;-84
2021/12/15 18:30:51;;;;;;;;;;;;;;;;;;2102116;28;1433;-82
2021/12/15 18:31:55;;;;;;;;;;;;;;;;;;2101483;28;1262;-83
2021/12/15 18:32:57;;;;;;;;;;;;;;;;;;2100519;28;1045;-83
2021/12/15 18:33:58;;;;;;;;;;;;;;;;;;2098159;28;881;-81
2021/12/15 18:35:05;;;;;;;;;;;;;;;;;;2081098;28;1886;-82
2021/12/15 18:36:32;;;;;;;;;;;;;;;;;;2081049;28;1377;-82
2021/12/15 18:37:33;;;;;;;;;;;;;;;;;;2074207;28;1684;-82
2021/12/15 18:38:36;;;;;;;;;;;;;;;;;;2076382;28;1613;-80
2021/12/15 18:39:39;;;;;;;;;;;;;;;;;;2079138;28;1711;-83
2021/12/15 18:40:41;;;;;;;;;;;;;;;;;;2089642;28;763;-83
2021/12/15 18:41:47;;;;;;;;;;;;;;;;;;2089687;28;847;-82
2021/12/15 18:42:51;;;;;;;;;;;;;;;;;;2089525;28;1283;-85
2021/12/15 18:44:00;;;;;;;;;;;;;;;;;;2088996;28;1253;-82
2021/12/15 18:45:06;;;;;;;;;;;;;;;;;;2092825;28;1332;-82
2021/12/15 18:46:08;;;;;;;;;;;;;;;;;;2087817;28;1603;-82
2021/12/15 18:47:11;;;;;;;;;;;;;;;;;;2085686;28;1632;-81
2021/12/15 18:48:12;;;;;;;;;;;;;;;;;;2088253;28;1568;-83
2021/12/15 18:49:19;;;;;;;;;;;;;;;;;;2086392;28;1663;-82
2021/12/15 18:50:35;;;;;;;;;;;;;;;;;;2087291;28;1179;-82
2021/12/15 18:51:36;;;;;;;;;;;;;;;;;;2088918;28;1374;-82
2021/12/15 18:52:40;;;;;;;;;;;;;;;;;;2088732;28;1880;-84
2021/12/15 18:53:44;;;;;;;;;;;;;;;;;;2088400;28;1216;-82
2021/12/15 18:55:10;;;;;;;;;;;;;;;;;;2089975;28;2050;-84
2021/12/15 18:56:51;;;;;;;;;;;;;;;;;;2097633;28;1235;-83
2021/12/15 18:58:03;;;;;;;;;;;;;;;;;;2093861;28;1204;-83
2021/12/15 18:59:33;;;;;;;;;;;;;;;;;;2093897;28;2097;-83
2021/12/15 19:00:36;;;;;;;;;;;;;;;;;;2089467;28;772;-83
2021/12/15 19:01:39;;;;;;;;;;;;;;;;;;2089762;28;960;-85
2021/12/15 19:02:51;;;;;;;;;;;;;;;;;;2080979;28;1192;-83
2021/12/15 19:03:55;;;;;;;;;;;;;;;;;;2082595;28;1176;-84
2021/12/15 19:04:58;;;;;;;;;;;;;;;;;;2089248;28;855;-84
2021/12/15 19:06:01;;;;;;;;;;;;;;;;;;2086675;28;1330;-83
2021/12/15 19:07:41;;;;;;;;;;;;;;;;;;2083496;28;1073;-83
2021/12/15 19:08:42;;;;;;;;;;;;;;;;;;2066535;28;1321;-85
2021/12/15 19:09:45;;;;;;;;;;;;;;;;;;2083736;28;744;-84
2021/12/15 19:10:51;;;;;;;;;;;;;;;;;;2075728;28;1428;-83
2021/12/15 19:12:26;;;;;;;;;;;;;;;;;;2075295;28;769;-84
2021/12/15 19:14:54;;;;;;;;;;;;;;;;;;2077030;28;1983;-79
2021/12/15 19:15:59;;;;;;;;;;;;;;;;;;2092038;28;890;-84
2021/12/15 19:17:08;;;;;;;;;;;;;;;;;;2099927;28;1325;-83
2021/12/15 19:18:12;;;;;;;;;;;;;;;;;;2097436;28;787;-83
2021/12/15 19:19:22;;;;;;;;;;;;;;;;;;2090823;28;1369;-83
2021/12/15 19:20:26;;;;;;;;;;;;;;;;;;2092109;28;784;-85
2021/12/15 19:21:28;;;;;;;;;;;;;;;;;;2090818;28;1219;-83
2021/12/15 19:22:32;;;;;;;;;;;;;;;;;;2087308;28;1848;-85
2021/12/15 19:23:34;;;;;;;;;;;;;;;;;;2073886;28;1393;-83
2021/12/15 19:24:45;;;;;;;;;;;;;;;;;;2073366;28;1813;-83
2021/12/15 19:27:54;;;;;;;;;;;;;;;;;;2061837;28;1304;-84
2021/12/15 19:28:58;;;;;;;;;;;;;;;;;;2066077;28;1350;-83
2021/12/15 19:30:00;;;;;;;;;;;;;;;;;;2093163;28;1424;-83
2021/12/15 19:32:22;;;;;;;;;;;;;;;;;;2079347;28;1246;-81
2021/12/15 19:33:23;;;;;;;;;;;;;;;;;;2089530;28;1654;-83
2021/12/15 19:34:39;;;;;;;;;;;;;;;;;;2082549;28;1762;-83
2021/12/15 19:35:42;;;;;;;;;;;;;;;;;;2074471;28;1975;-81
2021/12/15 19:36:43;;;;;;;;;;;;;;;;;;2074924;28;1755;-81
2021/12/15 19:37:44;;;;;;;;;;;;;;;;;;2074557;28;1286;-83
2021/12/15 19:38:47;;;;;;;;;;;;;;;;;;2079459;28;1569;-84
2021/12/15 19:39:50;;;;;;;;;;;;;;;;;;2086202;28;1737;-82
2021/12/15 19:40:56;;;;;;;;;;;;;;;;;;2075181;28;1307;-83
2021/12/15 19:42:04;;;;;;;;;;;;;;;;;;2082829;28;1258;-83
2021/12/15 19:43:05;;;;;;;;;;;;;;;;;;2082703;28;1251;-83
2021/12/15 19:44:21;;;;;;;;;;;;;;;;;;2087891;28;1670;-84
2021/12/15 19:45:49;;;;;;;;;;;;;;;;;;2089003;28;1625;-82
2021/12/15 19:47:13;;;;;;;;;;;;;;;;;;2070538;28;1351;-82
2021/12/15 19:48:40;;;;;;;;;;;;;;;;;;2079182;28;1217;-82
2021/12/15 19:49:46;;;;;;;;;;;;;;;;;;2081166;28;2011;-85
2021/12/15 19:50:47;;;;;;;;;;;;;;;;;;2074891;28;1276;-83
2021/12/15 19:51:53;;;;;;;;;;;;;;;;;;2083153;28;784;-83
2021/12/15 19:53:15;;;;;;;;;;;;;;;;;;2091564;28;1299;-83
2021/12/15 19:54:16;;;;;;;;;;;;;;;;;;2091756;28;1210;-85
2021/12/15 19:55:18;;;;;;;;;;;;;;;;;;2092840;28;1914;-86
2021/12/15 19:56:20;;;;;;;;;;;;;;;;;;2091756;28;1288;-85
2021/12/15 19:57:21;;;;;;;;;;;;;;;;;;2091446;28;918;-84
2021/12/15 19:58:22;;;;;;;;;;;;;;;;;;2083516;28;1048;-84
2021/12/15 19:59:26;;;;;;;;;;;;;;;;;;2086798;28;2212;-84
2021/12/15 20:00:27;;;;;;;;;;;;;;;;;;2075123;28;1263;-84
2021/12/15 20:01:31;;;;;;;;;;;;;;;;;;2075114;28;1248;-85
2021/12/15 20:02:32;;;;;;;;;;;;;;;;;;2067459;28;1291;-86
2021/12/15 20:03:34;;;;;;;;;;;;;;;;;;2075112;28;1754;-83
2021/12/15 20:04:35;;;;;;;;;;;;;;;;;;2082951;28;1914;-85
2021/12/15 20:05:38;;;;;;;;;;;;;;;;;;2074556;28;1365;-82
2021/12/15 20:06:42;;;;;;;;;;;;;;;;;;2075105;28;1232;-82
2021/12/15 20:07:43;;;;;;;;;;;;;;;;;;2074132;28;1216;-82
2021/12/15 20:08:46;;;;;;;;;;;;;;;;;;2074499;28;1787;-82
2021/12/15 20:09:47;;;;;;;;;;;;;;;;;;2082282;28;1311;-82
2021/12/15 20:10:50;;;;;;;;;;;;;;;;;;2074434;28;1313;-84
2021/12/15 20:11:51;;;;;;;;;;;;;;;;;;2074316;28;1238;-83
2021/12/15 20:12:53;;;;;;;;;;;;;;;;;;2082623;28;1299;-81
2021/12/15 20:13:57;;;;;;;;;;;;;;;;;;2082490;28;1239;-84
2021/12/15 20:14:59;;;;;;;;;;;;;;;;;;2075194;28;795;-83
2021/12/15 20:16:07;;;;;;;;;;;;;;;;;;2083192;28;1977;-84
2021/12/15 20:17:17;;;;;;;;;;;;;;;;;;2088300;28;1834;-83
2021/12/15 20:18:29;;;;;;;;;;;;;;;;;;2073150;28;1826;-81
2021/12/15 20:19:31;;;;;;;;;;;;;;;;;;2079333;28;1203;-83
2021/12/15 20:20:32;;;;;;;;;;;;;;;;;;2074845;28;1246;-84
2021/12/15 20:21:34;;;;;;;;;;;;;;;;;;2074484;28;1382;-83
2021/12/15 20:22:36;;;;;;;;;;;;;;;;;;2082849;28;1246;-84
2021/12/15 20:23:38;;;;;;;;;;;;;;;;;;2075000;28;1252;-90
2021/12/15 20:24:42;;;;;;;;;;;;;;;;;;2066139;28;2163;-84
2021/12/15 20:26:02;;;;;;;;;;;;;;;;;;2073356;28;1818;-89
2021/12/15 20:27:07;;;;;;;;;;;;;;;;;;2082218;28;1189;-91
2021/12/15 20:28:15;;;;;;;;;;;;;;;;;;2082716;28;1405;-89
2021/12/15 20:29:16;;;;;;;;;;;;;;;;;;2081833;28;1829;-85
2021/12/15 20:30:19;;;;;;;;;;;;;;;;;;2073806;28;1318;-83
2021/12/15 20:31:20;;;;;;;;;;;;;;;;;;2079862;28;1231;-84
2021/12/15 20:32:23;;;;;;;;;;;;;;;;;;2087038;28;1820;-83
2021/12/15 20:33:28;;;;;;;;;;;;;;;;;;2088911;28;1377;-82
2021/12/15 20:34:30;;;;;;;;;;;;;;;;;;2082821;28;1918;-82
2021/12/15 20:35:37;;;;;;;;;;;;;;;;;;2081325;28;1969;-83
2021/12/15 20:36:43;;;;;;;;;;;;;;;;;;2075861;28;1324;-84
2021/12/15 20:38:04;;;;;;;;;;;;;;;;;;2086713;28;1235;-84
2021/12/15 20:39:10;;;;;;;;;;;;;;;;;;2078344;28;1736;-82
2021/12/15 20:40:11;;;;;;;;;;;;;;;;;;2071810;28;1329;-83
2021/12/15 20:41:21;;;;;;;;;;;;;;;;;;2073400;28;1296;-82
2021/12/15 20:42:28;;;;;;;;;;;;;;;;;;2075179;28;1268;-89
2021/12/15 20:43:33;;;;;;;;;;;;;;;;;;2076205;28;1319;-88
2021/12/15 20:44:36;;;;;;;;;;;;;;;;;;2089389;28;1775;-87
2021/12/15 20:45:42;;;;;;;;;;;;;;;;;;2089467;28;1279;-89
2021/12/15 20:46:43;;;;;;;;;;;;;;;;;;2082124;28;1808;-88
2021/12/15 20:47:45;;;;;;;;;;;;;;;;;;2082030;28;1295;-86
2021/12/15 20:48:45;;;;;;;;;;;;;;;;;;2082608;28;1208;-86
2021/12/15 20:49:48;;;;;;;;;;;;;;;;;;2082282;28;1908;-88
2021/12/15 20:50:50;;;;;;;;;;;;;;;;;;2082609;28;1263;-89
2021/12/15 20:51:58;;;;;;;;;;;;;;;;;;2082471;28;1375;-89
2021/12/15 20:53:06;;;;;;;;;;;;;;;;;;2082685;28;1268;-87
2021/12/15 20:54:10;;;;;;;;;;;;;;;;;;2088021;28;1674;-89
2021/12/15 20:55:16;;;;;;;;;;;;;;;;;;2082253;28;1641;-87
2021/12/15 20:56:20;;;;;;;;;;;;;;;;;;2082376;28;1981;-89
2021/12/15 20:57:34;;;;;;;;;;;;;;;;;;2083038;28;1320;-89
2021/12/15 20:58:42;;;;;;;;;;;;;;;;;;2083016;28;1447;-87
2021/12/15 20:59:42;;;;;;;;;;;;;;;;;;2082368;28;1911;-86
2021/12/15 21:00:46;;;;;;;;;;;;;;;;;;2082760;28;1220;-85
2021/12/15 21:01:48;;;;;;;;;;;;;;;;;;2081224;28;1406;-87
2021/12/15 21:02:53;;;;;;;;;;;;;;;;;;2082781;28;736;-89
2021/12/15 21:03:54;;;;;;;;;;;;;;;;;;2080008;28;1881;-87
2021/12/15 21:04:58;;;;;;;;;;;;;;;;;;2066706;28;1323;-86
2021/12/15 21:06:03;;;;;;;;;;;;;;;;;;2070404;28;1323;-85
2021/12/15 21:07:04;;;;;;;;;;;;;;;;;;2075024;28;1356;-85
2021/12/15 21:08:07;;;;;;;;;;;;;;;;;;2082722;28;875;-85
2021/12/15 21:09:10;;;;;;;;;;;;;;;;;;2072231;28;1324;-85
2021/12/15 21:10:16;;;;;;;;;;;;;;;;;;2066959;28;1084;-85
2021/12/15 21:11:22;;;;;;;;;;;;;;;;;;2080649;28;1347;-86
2021/12/15 21:12:24;;;;;;;;;;;;;;;;;;2074800;28;1265;-85
2021/12/15 21:13:25;;;;;;;;;;;;;;;;;;2074403;28;831;-86
2021/12/15 21:14:28;;;;;;;;;;;;;;;;;;2078820;28;1193;-85
2021/12/15 21:15:30;;;;;;;;;;;;;;;;;;2082877;28;1398;-85
2021/12/15 21:16:34;;;;;;;;;;;;;;;;;;2082842;28;1981;-86
2021/12/15 21:17:35;;;;;;;;;;;;;;;;;;2082590;28;1351;-84
2021/12/15 21:18:38;;;;;;;;;;;;;;;;;;2082722;28;1259;-86
2021/12/15 21:19:43;;;;;;;;;;;;;;;;;;2081933;28;1398;-85
2021/12/15 21:20:48;;;;;;;;;;;;;;;;;;2082924;28;1042;-90
2021/12/15 21:21:50;;;;;;;;;;;;;;;;;;2070164;28;1932;-88
2021/12/15 21:22:52;;;;;;;;;;;;;;;;;;2074840;28;1344;-88
2021/12/15 21:23:53;;;;;;;;;;;;;;;;;;2081800;28;1772;-87
2021/12/15 21:24:54;;;;;;;;;;;;;;;;;;2082903;28;788;-87
2021/12/15 21:25:58;;;;;;;;;;;;;;;;;;2074594;28;753;-87
2021/12/15 21:27:02;;;;;;;;;;;;;;;;;;2080043;28;788;-88
2021/12/15 21:32:03;;;;;;;;;;;;;;;;;;2071748;28;1356;-85
2021/12/15 21:33:07;;;;;;;;;;;;;;;;;;2067623;28;1350;-86
2021/12/15 21:34:21;;;;;;;;;;;;;;;;;;2066465;28;2032;-87
2021/12/15 21:35:30;;;;;;;;;;;;;;;;;;2092471;28;1333;-87
2021/12/15 21:36:33;;;;;;;;;;;;;;;;;;2095674;28;2000;-87
2021/12/15 21:37:35;;;;;;;;;;;;;;;;;;2082353;28;1367;-85
2021/12/15 21:38:42;;;;;;;;;;;;;;;;;;2082682;28;946;-86
2021/12/15 21:39:43;;;;;;;;;;;;;;;;;;2080122;28;1931;-87
2021/12/15 21:40:45;;;;;;;;;;;;;;;;;;2074347;28;1427;-85
2021/12/15 21:41:46;;;;;;;;;;;;;;;;;;2074091;28;1323;-87
2021/12/15 21:43:03;;;;;;;;;;;;;;;;;;2075109;28;895;-87
2021/12/15 21:44:37;;;;;;;;;;;;;;;;;;2075537;28;2105;-87
2021/12/15 21:45:44;;;;;;;;;;;;;;;;;;2076846;28;1279;-88
2021/12/15 21:46:48;;;;;;;;;;;;;;;;;;2080734;28;1262;-88
2021/12/15 21:49:23;;;;;;;;;;;;;;;;;;2087151;28;2123;-89
2021/12/15 21:50:24;;;;;;;;;;;;;;;;;;2080394;28;1635;-87
2021/12/15 21:51:29;;;;;;;;;;;;;;;;;;2081928;28;1354;-88
2021/12/15 21:52:33;;;;;;;;;;;;;;;;;;2082159;28;1396;-88
2021/12/15 21:53:35;;;;;;;;;;;;;;;;;;2074861;28;1286;-87
2021/12/15 21:54:36;;;;;;;;;;;;;;;;;;2082287;28;2201;-88
2021/12/15 21:55:38;;;;;;;;;;;;;;;;;;2082497;28;1417;-87
2021/12/15 21:56:47;;;;;;;;;;;;;;;;;;2079610;28;1902;-87
2021/12/15 21:57:51;;;;;;;;;;;;;;;;;;2071025;28;1469;-86
2021/12/15 21:58:53;;;;;;;;;;;;;;;;;;2074662;28;772;-87
2021/12/15 21:59:55;;;;;;;;;;;;;;;;;;2075565;28;866;-87
2021/12/15 22:00:56;;;;;;;;;;;;;;;;;;2074700;28;1216;-87
2021/12/15 22:01:57;;;;;;;;;;;;;;;;;;2074525;28;1298;-87
2021/12/15 22:02:59;;;;;;;;;;;;;;;;;;2082699;28;1278;-87
2021/12/15 22:04:02;;;;;;;;;;;;;;;;;;2075031;28;1998;-94
2021/12/15 22:05:07;;;;;;;;;;;;;;;;;;2082400;28;1235;-86
2021/12/15 22:08:23;;;;;;;;;;;;;;;;;;2060366;28;966;-86
2021/12/15 22:09:35;;;;;;;;;;;;;;;;;;2078659;28;1776;-89
2021/12/15 22:12:59;;;;;;;;;;;;;;;;;;2074000;28;1042;-88
2021/12/15 22:14:00;;;;;;;;;;;;;;;;;;2075383;28;2151;-86
2021/12/15 22:15:02;;;;;;;;;;;;;;;;;;2081669;28;1430;-85
2021/12/15 22:16:05;;;;;;;;;;;;;;;;;;2081963;28;1973;-87
2021/12/15 22:17:08;;;;;;;;;;;;;;;;;;2075937;28;1211;-87
2021/12/15 22:18:12;;;;;;;;;;;;;;;;;;2066019;28;1286;-84
2021/12/15 22:19:14;;;;;;;;;;;;;;;;;;2076415;28;1995;-86
2021/12/15 22:20:17;;;;;;;;;;;;;;;;;;2074445;28;1222;-85
2021/12/15 22:21:26;;;;;;;;;;;;;;;;;;2074620;28;1223;-86
2021/12/15 22:22:44;;;;;;;;;;;;;;;;;;2074199;28;1296;-85
2021/12/15 22:23:55;;;;;;;;;;;;;;;;;;2084255;28;1361;-86
2021/12/15 22:25:11;;;;;;;;;;;;;;;;;;2093617;28;1384;-86
2021/12/15 22:26:29;;;;;;;;;;;;;;;;;;2082262;28;1148;-87
2021/12/15 22:27:33;;;;;;;;;;;;;;;;;;2075527;28;1228;-89
2021/12/15 22:28:58;;;;;;;;;;;;;;;;;;;;;
2021/12/15 22:30:01;;;;;;;;;;;;;;;;;;2080206;28;1269;-87
2021/12/15 22:31:02;;;;;;;;;;;;;;;;;;2081913;28;1307;-88
2021/12/15 22:32:08;;;;;;;;;;;;;;;;;;2081676;28;1847;-87
2021/12/15 22:33:10;;;;;;;;;;;;;;;;;;2081803;28;887;-87
2021/12/15 22:34:14;;;;;;;;;;;;;;;;;;2081553;28;1767;-87
2021/12/15 22:35:32;;;;;;;;;;;;;;;;;;2074397;28;1402;-86
2021/12/15 22:36:57;;;;;;;;;;;;;;;;;;2080089;28;1973;-87
2021/12/15 22:38:05;;;;;;;;;;;;;;;;;;2082393;28;1236;-87
2021/12/15 22:39:09;;;;;;;;;;;;;;;;;;2080761;28;1697;-86
2021/12/15 22:40:10;;;;;;;;;;;;;;;;;;2082302;28;1281;-87
2021/12/15 22:41:14;;;;;;;;;;;;;;;;;;2081846;28;1344;-88
2021/12/15 22:42:15;;;;;;;;;;;;;;;;;;2068250;28;2065;-88
2021/12/15 22:43:18;;;;;;;;;;;;;;;;;;2075876;28;773;-88
2021/12/15 22:44:26;;;;;;;;;;;;;;;;;;2079222;28;1758;-88
2021/12/15 22:45:27;;;;;;;;;;;;;;;;;;2083482;28;1335;-86
2021/12/15 22:46:29;;;;;;;;;;;;;;;;;;2083451;28;1670;-86
2021/12/15 22:47:31;;;;;;;;;;;;;;;;;;2083228;28;1394;-86
2021/12/15 22:48:34;;;;;;;;;;;;;;;;;;2075799;28;1474;-86
2021/12/15 22:49:40;;;;;;;;;;;;;;;;;;2066764;28;1616;-86
2021/12/15 22:50:43;;;;;;;;;;;;;;;;;;2076050;28;1402;-86
2021/12/15 22:51:45;;;;;;;;;;;;;;;;;;2075540;28;1236;-86
2021/12/15 22:52:46;;;;;;;;;;;;;;;;;;2075887;28;1267;-85
2021/12/15 22:53:48;;;;;;;;;;;;;;;;;;2075421;28;1223;-86
2021/12/15 22:54:50;;;;;;;;;;;;;;;;;;2075207;28;1188;-85
2021/12/15 22:55:51;;;;;;;;;;;;;;;;;;2075146;28;1174;-88
2021/12/15 22:56:53;;;;;;;;;;;;;;;;;;2075498;28;1902;-87
2021/12/15 22:57:54;;;;;;;;;;;;;;;;;;2075187;28;1261;-86
2021/12/15 22:58:56;;;;;;;;;;;;;;;;;;2067611;28;1318;-85
2021/12/15 22:59:57;;;;;;;;;;;;;;;;;;2075410;28;1206;-86
2021/12/15 23:01:05;;;;;;;;;;;;;;;;;;2082393;28;1451;-84
2021/12/15 23:02:07;;;;;;;;;;;;;;;;;;2076114;28;1264;-86
2021/12/15 23:03:10;;;;;;;;;;;;;;;;;;2075446;28;1228;-85
2021/12/15 23:04:12;;;;;;;;;;;;;;;;;;2083447;28;1230;-85
2021/12/15 23:05:16;;;;;;;;;;;;;;;;;;2092313;28;1340;-85
2021/12/15 23:06:19;;;;;;;;;;;;;;;;;;2091311;28;1441;-84
2021/12/15 23:07:22;;;;;;;;;;;;;;;;;;2075831;28;1318;-84
2021/12/15 23:08:24;;;;;;;;;;;;;;;;;;2080362;28;1337;-85
2021/12/15 23:09:27;;;;;;;;;;;;;;;;;;2083677;28;1538;-85
2021/12/15 23:10:31;;;;;;;;;;;;;;;;;;2083339;28;1448;-84
2021/12/15 23:11:42;;;;;;;;;;;;;;;;;;2075626;28;1690;-85
2021/12/15 23:12:44;;;;;;;;;;;;;;;;;;2077019;28;1231;-84
2021/12/15 23:13:45;;;;;;;;;;;;;;;;;;2075271;28;1384;-85
2021/12/15 23:14:49;;;;;;;;;;;;;;;;;;2075250;28;1319;-84
2021/12/15 23:15:50;;;;;;;;;;;;;;;;;;2075456;28;1212;-84
2021/12/15 23:16:52;;;;;;;;;;;;;;;;;;2082887;28;1914;-85
2021/12/15 23:17:57;;;;;;;;;;;;;;;;;;2083346;28;1407;-84
2021/12/15 23:18:59;;;;;;;;;;;;;;;;;;2083499;28;2125;-86
2021/12/15 23:20:07;;;;;;;;;;;;;;;;;;2083492;28;936;-87
2021/12/15 23:21:10;;;;;;;;;;;;;;;;;;2083969;28;1286;-87
2021/12/15 23:22:14;;;;;;;;;;;;;;;;;;2083796;28;1286;-86
2021/12/15 23:23:16;;;;;;;;;;;;;;;;;;2083427;28;1056;-87
2021/12/15 23:24:23;;;;;;;;;;;;;;;;;;2083207;28;1462;-87
2021/12/15 23:25:26;;;;;;;;;;;;;;;;;;2083610;28;1214;-87
2021/12/15 23:26:30;;;;;;;;;;;;;;;;;;2083133;28;1436;-86
2021/12/15 23:27:31;;;;;;;;;;;;;;;;;;2083575;28;1463;-86
2021/12/15 23:28:37;;;;;;;;;;;;;;;;;;2083849;28;1205;-86
2021/12/15 23:29:38;;;;;;;;;;;;;;;;;;2083892;28;1265;-87
2021/12/15 23:30:41;;;;;;;;;;;;;;;;;;2083798;28;1458;-86
2021/12/15 23:31:42;;;;;;;;;;;;;;;;;;2091046;28;1053;-86
2021/12/15 23:32:44;;;;;;;;;;;;;;;;;;2083821;28;1229;-85
2021/12/15 23:33:46;;;;;;;;;;;;;;;;;;2075742;28;1294;-86
2021/12/15 23:35:02;;;;;;;;;;;;;;;;;;2083036;28;1256;-86
2021/12/15 23:36:06;;;;;;;;;;;;;;;;;;2074667;28;1352;-86
2021/12/15 23:37:08;;;;;;;;;;;;;;;;;;2077669;28;1914;-85
2021/12/15 23:38:24;;;;;;;;;;;;;;;;;;2083609;28;1219;-86
2021/12/15 23:40:01;;;;;;;;;;;;;;;;;;2083557;28;1045;-87
2021/12/15 23:54:48;;;;;;;;;;;;;;;;;;2075354;28;1400;-87
